Time;durP1;ratioP1;P1;durP2;ratioP2;P2;SDS_P1;SDS_P2;PMS_P1;PMS_P2;Temp;Humidity;BMP_temperature;BMP_pressure;BME280_temperature;BME280_humidity;BME280_pressure;Samples;Min_cycle;Max_cycle;Signal;HPM_P1;HPM_P2
2023/01/29 00:01:14;;;;;;;21.63;10.07;;;0.80;99.90;;;;;;4979410;28;20029;-87
2023/01/29 00:03:40;;;;;;;19.40;9.27;;;0.80;99.90;;;;;;4965186;28;20152;-87
2023/01/29 00:06:07;;;;;;;17.52;8.90;;;0.80;99.90;;;;;;4989492;28;20215;-87
2023/01/29 00:08:37;;;;;;;18.35;9.73;;;0.80;99.90;;;;;;4976834;28;20018;-87
2023/01/29 00:11:04;;;;;;;20.92;9.68;;;0.80;99.90;;;;;;5010127;28;20084;-87
2023/01/29 00:13:30;;;;;;;18.65;9.40;;;0.80;99.90;;;;;;4984182;28;20029;-87
2023/01/29 00:15:57;;;;;;;18.17;9.23;;;0.80;99.90;;;;;;4963704;28;20845;-87
2023/01/29 00:18:24;;;;;;;20.58;9.35;;;0.80;99.90;;;;;;4972835;28;20212;-86
2023/01/29 00:20:50;;;;;;;17.98;8.80;;;0.80;99.90;;;;;;5010078;28;20320;-87
2023/01/29 00:23:16;;;;;;;18.67;9.25;;;0.70;99.90;;;;;;5000131;28;20033;-86
2023/01/29 00:25:42;;;;;;;20.95;9.57;;;0.80;99.90;;;;;;4993625;28;20068;-86
2023/01/29 00:28:08;;;;;;;21.00;9.63;;;0.70;99.90;;;;;;4997793;28;20032;-86
2023/01/29 00:30:35;;;;;;;20.02;9.27;;;0.70;99.90;;;;;;4980377;28;20146;-86
2023/01/29 00:33:02;;;;;;;21.80;10.05;;;0.70;99.90;;;;;;4978077;28;20122;-86
2023/01/29 00:35:27;;;;;;;18.73;9.48;;;0.70;99.90;;;;;;4970236;28;20127;-86
2023/01/29 00:37:56;;;;;;;19.10;9.63;;;0.70;99.90;;;;;;4980700;28;20037;-86
2023/01/29 00:40:23;;;;;;;20.10;9.63;;;0.70;99.90;;;;;;5012260;28;20036;-86
2023/01/29 00:45:35;;;;;;;22.58;10.30;;;0.70;99.90;;;;;;5005418;28;20049;-86
2023/01/29 00:48:02;;;;;;;19.77;10.10;;;0.70;99.90;;;;;;4980554;28;20032;-86
2023/01/29 00:50:28;;;;;;;20.40;9.97;;;0.70;99.90;;;;;;4968797;28;20071;-86
2023/01/29 00:52:54;;;;;;;20.25;9.95;;;0.70;99.90;;;;;;4988272;28;20374;-86
2023/01/29 00:55:20;;;;;;;20.55;10.05;;;0.70;99.90;;;;;;4964900;28;20029;-86
2023/01/29 00:57:45;;;;;;;21.97;10.27;;;0.60;99.90;;;;;;4990784;28;20029;-86
2023/01/29 01:00:14;;;;;;;22.45;10.10;;;0.70;99.90;;;;;;4983681;28;20023;-87
2023/01/29 01:05:38;;;;;;;19.27;8.73;;;0.70;99.90;;;;;;4973410;28;20657;-86
2023/01/29 01:10:19;;;;;;;18.20;9.23;;;0.70;99.90;;;;;;4990896;28;20201;-86
2023/01/29 01:11:01;;;;;;;21.45;9.93;;;0.70;99.90;;;;;;5013002;28;20361;-86
2023/01/29 01:13:27;;;;;;;18.48;8.82;;;0.60;99.90;;;;;;5008270;28;20033;-86
2023/01/29 01:15:53;;;;;;;19.42;9.32;;;0.60;99.90;;;;;;4978996;28;20053;-86
2023/01/29 01:18:21;;;;;;;19.17;9.47;;;0.60;99.90;;;;;;4993948;28;20140;-86
2023/01/29 01:20:50;;;;;;;19.33;9.68;;;0.60;99.90;;;;;;4969165;28;20037;-86
2023/01/29 01:23:19;;;;;;;22.13;11.05;;;0.60;99.90;;;;;;5005676;28;20687;-86
2023/01/29 01:25:45;;;;;;;19.52;9.60;;;0.60;99.90;;;;;;4981430;28;20027;-86
2023/01/29 01:28:11;;;;;;;19.17;9.45;;;0.60;99.90;;;;;;4988486;28;20691;-86
2023/01/29 01:30:38;;;;;;;20.87;10.30;;;0.60;99.90;;;;;;4976511;28;20025;-86
2023/01/29 01:33:04;;;;;;;18.42;9.45;;;0.50;99.90;;;;;;4977526;28;20333;-86
2023/01/29 01:35:30;;;;;;;18.70;9.30;;;0.60;99.90;;;;;;4987133;28;20049;-86
2023/01/29 01:37:55;;;;;;;20.67;9.93;;;0.50;99.90;;;;;;4992242;28;20048;-86
2023/01/29 01:40:23;;;;;;;21.10;9.77;;;0.50;99.90;;;;;;4978332;28;20024;-87
2023/01/29 01:42:51;;;;;;;20.55;9.45;;;0.50;99.90;;;;;;4991720;28;20044;-86
2023/01/29 01:45:38;;;;;;;17.77;8.80;;;0.50;99.90;;;;;;4999371;28;20036;-86
2023/01/29 01:48:13;;;;;;;19.75;9.13;;;0.50;99.90;;;;;;4992273;28;20060;-87
2023/01/29 01:50:44;;;;;;;20.13;9.13;;;0.50;99.90;;;;;;4966083;28;20050;-86
2023/01/29 01:53:13;;;;;;;18.15;8.85;;;0.50;99.90;;;;;;4994526;28;20049;-86
2023/01/29 01:55:49;;;;;;;19.42;8.85;;;0.50;99.90;;;;;;4989233;28;20022;-86
2023/01/29 01:58:25;;;;;;;19.60;9.50;;;0.50;99.90;;;;;;5007662;28;20030;-86
2023/01/29 02:00:51;;;;;;;18.42;9.00;;;0.50;99.90;;;;;;4978693;28;20029;-87
2023/01/29 02:11:43;;;;;;;19.52;8.93;;;0.40;99.90;;;;;;5003250;28;20028;-87
2023/01/29 02:14:09;;;;;;;18.58;8.70;;;0.50;99.90;;;;;;4990269;28;20290;-87
2023/01/29 02:16:36;;;;;;;18.20;8.73;;;0.50;99.90;;;;;;4999393;28;20298;-87
2023/01/29 02:19:06;;;;;;;18.17;8.50;;;0.40;99.90;;;;;;4996694;28;20044;-87
2023/01/29 02:21:43;;;;;;;16.35;8.07;;;0.50;99.90;;;;;;4987772;28;20109;-87
2023/01/29 02:24:44;;;;;;;16.20;8.02;;;0.40;99.90;;;;;;5012802;28;20025;-87
2023/01/29 02:27:16;;;;;;;17.02;7.72;;;0.50;99.90;;;;;;4986682;28;20565;-87
2023/01/29 02:29:49;;;;;;;17.63;7.82;;;0.40;99.90;;;;;;4983880;28;20056;-87
2023/01/29 02:32:19;;;;;;;15.03;8.07;;;0.40;99.90;;;;;;5012014;28;20014;-87
2023/01/29 02:37:43;;;;;;;14.98;7.35;;;0.40;99.90;;;;;;4993811;28;20029;-87
2023/01/29 02:40:54;;;;;;;17.83;8.52;;;0.40;99.90;;;;;;5013806;28;20029;-87
2023/01/29 02:43:46;;;;;;;17.17;8.02;;;0.40;99.90;;;;;;4972851;28;20045;-87
2023/01/29 02:46:15;;;;;;;18.37;8.20;;;0.40;99.90;;;;;;5001637;28;20104;-87
2023/01/29 02:49:02;;;;;;;16.90;7.80;;;0.40;99.90;;;;;;4994257;28;20033;-87
2023/01/29 02:51:43;;;;;;;18.15;8.02;;;0.40;99.90;;;;;;4997276;28;20060;-87
2023/01/29 02:54:19;;;;;;;15.73;7.55;;;0.40;99.90;;;;;;4995263;28;20029;-87
2023/01/29 02:56:44;;;;;;;15.68;7.82;;;0.30;99.90;;;;;;5002902;28;20029;-87
2023/01/29 02:59:19;;;;;;;16.13;8.27;;;0.30;99.90;;;;;;4986765;28;20512;-87
2023/01/29 03:01:50;;;;;;;17.30;8.15;;;0.40;99.90;;;;;;5002573;28;20025;-87
2023/01/29 03:04:21;;;;;;;16.77;8.05;;;0.30;99.90;;;;;;4979906;28;20025;-87
2023/01/29 03:06:56;;;;;;;14.20;7.07;;;0.30;99.90;;;;;;4970171;28;20803;-87
2023/01/29 03:09:36;;;;;;;15.18;7.57;;;0.30;99.90;;;;;;4999834;28;20025;-87
2023/01/29 03:12:35;;;;;;;15.88;8.32;;;0.30;99.90;;;;;;4995472;28;20124;-87
2023/01/29 03:15:12;;;;;;;16.45;7.30;;;0.40;99.90;;;;;;4983179;28;21501;-87
2023/01/29 03:18:05;;;;;;;15.90;7.85;;;0.40;99.90;;;;;;5003732;28;20033;-87
2023/01/29 03:20:47;;;;;;;16.50;8.30;;;0.40;99.90;;;;;;4985132;28;20017;-87
2023/01/29 03:23:23;;;;;;;19.45;9.02;;;0.50;99.90;;;;;;4991440;28;20044;-87
2023/01/29 03:34:17;;;;;;;15.03;7.33;;;0.60;99.90;;;;;;5005776;28;20022;-87
2023/01/29 03:36:54;;;;;;;16.55;7.45;;;0.70;99.90;;;;;;4995608;28;20589;-87
2023/01/29 03:39:23;;;;;;;15.98;7.80;;;0.80;99.90;;;;;;4978306;28;20577;-87
2023/01/29 03:42:00;;;;;;;16.05;7.70;;;0.80;99.90;;;;;;5011831;28;20030;-87
2023/01/29 03:44:55;;;;;;;16.98;7.78;;;0.90;99.90;;;;;;5016214;28;20381;-87
2023/01/29 03:47:43;;;;;;;15.83;7.33;;;1.00;99.90;;;;;;4995887;28;20025;-87
2023/01/29 03:50:27;;;;;;;13.93;6.70;;;1.00;99.90;;;;;;4984423;28;20230;-87
2023/01/29 03:53:19;;;;;;;17.52;8.13;;;1.10;99.90;;;;;;4978971;28;20107;-87
2023/01/29 03:56:07;;;;;;;13.05;6.63;;;1.10;99.90;;;;;;4987042;28;20036;-87
2023/01/29 03:58:44;;;;;;;13.55;7.43;;;1.10;99.90;;;;;;4995798;28;20029;-87
2023/01/29 04:01:18;;;;;;;15.80;7.63;;;1.20;99.90;;;;;;4988446;28;20025;-87
2023/01/29 04:04:00;;;;;;;16.40;8.40;;;1.20;99.90;;;;;;4993683;28;20033;-87
2023/01/29 04:06:29;;;;;;;18.02;8.60;;;1.20;99.90;;;;;;5004064;28;20257;-87
2023/01/29 04:09:12;;;;;;;19.30;8.68;;;1.20;99.90;;;;;;4979182;28;20114;-87
2023/01/29 04:11:45;;;;;;;16.85;7.97;;;1.20;99.90;;;;;;4990785;28;20049;-87
2023/01/29 04:14:12;;;;;;;17.07;7.70;;;1.30;99.90;;;;;;5032323;28;20025;-87
2023/01/29 04:16:44;;;;;;;16.55;7.88;;;1.30;99.90;;;;;;4989438;28;20029;-87
2023/01/29 04:19:11;;;;;;;17.70;8.30;;;1.30;99.90;;;;;;4995008;28;20021;-87
2023/01/29 04:21:37;;;;;;;18.55;8.55;;;1.40;99.90;;;;;;4990386;28;20108;-87
2023/01/29 04:24:04;;;;;;;16.38;7.35;;;1.40;99.90;;;;;;4981329;28;20414;-87
2023/01/29 04:26:53;;;;;;;17.73;8.70;;;1.50;99.90;;;;;;4994285;28;20503;-87
2023/01/29 04:29:25;;;;;;;18.17;8.77;;;1.50;99.90;;;;;;5017390;28;20041;-87
2023/01/29 04:32:17;;;;;;;18.40;8.43;;;1.60;99.90;;;;;;4982480;28;20340;-87
2023/01/29 04:35:14;;;;;;;16.33;7.88;;;1.60;99.90;;;;;;5011701;28;20039;-87
2023/01/29 04:38:22;;;;;;;18.05;7.47;;;1.60;99.90;;;;;;4990197;28;20017;-87
2023/01/29 04:41:20;;;;;;;16.90;7.40;;;1.60;99.90;;;;;;4993999;28;20035;-87
2023/01/29 04:43:54;;;;;;;15.75;6.93;;;1.70;99.90;;;;;;5005686;28;20128;-87
2023/01/29 04:46:31;;;;;;;16.70;7.07;;;1.70;99.90;;;;;;4997218;28;20120;-87
2023/01/29 04:49:01;;;;;;;16.55;7.68;;;1.70;99.90;;;;;;4984712;28;20033;-87
2023/01/29 04:51:38;;;;;;;16.65;7.72;;;1.80;99.90;;;;;;5011392;28;20029;-87
2023/01/29 04:54:25;;;;;;;16.30;7.23;;;1.80;99.90;;;;;;5005724;28;20751;-87
2023/01/29 04:57:06;;;;;;;16.15;7.05;;;1.80;99.90;;;;;;4977836;28;20041;-87
2023/01/29 04:59:37;;;;;;;16.88;7.50;;;1.90;99.90;;;;;;4992076;28;20618;-87
2023/01/29 05:02:06;;;;;;;18.35;8.02;;;1.90;99.90;;;;;;4999583;28;20064;-87
2023/01/29 05:04:34;;;;;;;19.10;8.57;;;1.90;99.90;;;;;;4983359;28;20032;-87
2023/01/29 05:07:07;;;;;;;19.30;8.20;;;2.00;99.90;;;;;;5031545;28;20076;-87
2023/01/29 05:09:35;;;;;;;19.60;8.23;;;2.00;99.90;;;;;;5000071;28;20029;-87
2023/01/29 05:12:02;;;;;;;22.60;9.75;;;2.00;99.90;;;;;;4968677;28;20346;-87
2023/01/29 05:14:32;;;;;;;19.80;9.05;;;2.00;99.90;;;;;;4999135;28;20060;-87
2023/01/29 05:17:03;;;;;;;18.23;8.63;;;2.00;99.90;;;;;;5011353;28;20287;-87
2023/01/29 05:19:29;;;;;;;15.90;7.60;;;2.10;99.90;;;;;;4988117;28;20103;-87
2023/01/29 05:21:56;;;;;;;18.60;8.65;;;2.00;99.90;;;;;;4999453;28;20390;-87
2023/01/29 05:24:23;;;;;;;19.73;9.05;;;2.10;99.90;;;;;;4986444;28;20056;-87
2023/01/29 05:29:40;;;;;;;17.92;8.18;;;2.10;99.90;;;;;;5012122;28;20017;-87
2023/01/29 05:32:06;;;;;;;18.73;8.43;;;2.10;99.90;;;;;;5011922;28;20085;-87
2023/01/29 05:34:31;;;;;;;16.25;7.68;;;2.10;99.90;;;;;;5008843;28;20680;-87
2023/01/29 05:36:57;;;;;;;16.57;7.80;;;2.10;99.90;;;;;;4987494;28;20780;-87
2023/01/29 05:39:23;;;;;;;17.50;8.20;;;2.20;99.90;;;;;;4988160;28;20025;-87
2023/01/29 05:41:48;;;;;;;18.83;7.88;;;2.20;99.90;;;;;;4977750;28;20084;-87
2023/01/29 05:44:14;;;;;;;16.93;7.77;;;2.20;99.90;;;;;;4990165;28;20025;-88
2023/01/29 05:46:40;;;;;;;19.38;8.25;;;2.20;99.90;;;;;;5010183;28;20029;-87
2023/01/29 05:49:05;;;;;;;16.43;7.50;;;2.30;99.90;;;;;;4985344;28;20251;-87
2023/01/29 05:51:31;;;;;;;16.85;7.88;;;2.30;99.90;;;;;;4985030;28;20025;-87
2023/01/29 05:53:57;;;;;;;15.97;7.50;;;2.30;99.90;;;;;;4993968;28;20944;-87
2023/01/29 05:56:24;;;;;;;18.63;7.65;;;2.30;99.90;;;;;;4991201;28;20022;-87
2023/01/29 05:58:49;;;;;;;16.88;8.02;;;2.40;99.90;;;;;;4959740;28;20084;-87
2023/01/29 06:01:18;;;;;;;17.87;7.57;;;2.40;99.90;;;;;;4989544;28;20406;-87
2023/01/29 06:03:45;;;;;;;18.13;8.50;;;2.40;99.90;;;;;;5007244;28;20352;-87
2023/01/29 06:06:11;;;;;;;19.85;8.02;;;2.40;99.90;;;;;;4996720;28;20366;-87
2023/01/29 06:08:37;;;;;;;18.27;8.43;;;2.40;99.90;;;;;;4992683;28;20054;-87
2023/01/29 06:11:06;;;;;;;18.13;8.73;;;2.50;99.90;;;;;;4979560;28;20161;-87
2023/01/29 06:13:32;;;;;;;17.52;8.32;;;2.50;99.90;;;;;;4974391;28;20055;-87
2023/01/29 06:15:58;;;;;;;18.70;8.35;;;2.50;99.90;;;;;;4986926;28;20037;-87
2023/01/29 06:18:24;;;;;;;16.00;7.97;;;2.50;99.90;;;;;;5003921;28;20249;-87
2023/01/29 06:20:50;;;;;;;17.40;7.43;;;2.50;99.90;;;;;;5008057;28;20218;-87
2023/01/29 06:23:16;;;;;;;17.20;8.10;;;2.50;99.90;;;;;;4994229;28;20033;-87
2023/01/29 06:25:41;;;;;;;17.60;7.80;;;2.50;99.90;;;;;;4984374;28;20788;-87
2023/01/29 06:28:07;;;;;;;17.52;7.88;;;2.60;99.90;;;;;;4995123;28;20435;-87
2023/01/29 06:30:33;;;;;;;17.83;7.93;;;2.60;99.90;;;;;;4962334;28;20564;-87
2023/01/29 06:33:00;;;;;;;16.23;7.27;;;2.60;99.90;;;;;;5007055;28;20548;-87
2023/01/29 06:35:27;;;;;;;15.00;6.97;;;2.60;99.90;;;;;;5005232;28;20386;-87
2023/01/29 06:37:53;;;;;;;16.70;7.40;;;2.60;99.90;;;;;;4985100;28;20022;-87
2023/01/29 06:40:19;;;;;;;15.80;6.82;;;2.60;99.90;;;;;;4982665;28;20900;-87
2023/01/29 06:42:45;;;;;;;18.60;7.82;;;2.60;99.90;;;;;;4999757;28;20677;-87
2023/01/29 06:45:10;;;;;;;15.97;7.03;;;2.60;99.90;;;;;;4971563;28;20288;-87
2023/01/29 06:47:36;;;;;;;19.17;7.57;;;2.70;99.90;;;;;;4977991;28;20035;-87
2023/01/29 06:50:03;;;;;;;16.13;7.10;;;2.70;99.90;;;;;;5003782;28;20104;-87
2023/01/29 06:52:28;;;;;;;16.98;7.32;;;2.70;99.90;;;;;;5008769;28;20021;-87
2023/01/29 06:54:55;;;;;;;17.75;7.85;;;2.70;99.90;;;;;;5004406;28;20044;-87
2023/01/29 06:57:21;;;;;;;17.53;7.50;;;2.70;99.90;;;;;;4978571;28;20071;-88
2023/01/29 06:59:47;;;;;;;17.00;7.53;;;2.70;99.90;;;;;;4991571;28;20485;-87
2023/01/29 07:02:12;;;;;;;16.40;7.43;;;2.80;99.90;;;;;;4986341;28;20029;-87
2023/01/29 07:04:40;;;;;;;14.87;6.77;;;2.80;99.90;;;;;;5002637;28;20037;-87
2023/01/29 07:07:11;;;;;;;17.73;7.70;;;2.80;99.90;;;;;;5008041;28;20049;-87
2023/01/29 07:09:39;;;;;;;16.15;7.60;;;2.80;99.90;;;;;;4972549;28;20303;-87
2023/01/29 07:12:06;;;;;;;14.45;6.85;;;2.80;99.90;;;;;;4998426;28;20034;-87
2023/01/29 07:14:31;;;;;;;17.00;7.57;;;2.80;99.90;;;;;;4959410;28;20285;-87
2023/01/29 07:16:57;;;;;;;17.23;7.17;;;2.90;99.90;;;;;;5013147;28;20589;-87
2023/01/29 07:19:23;;;;;;;15.83;7.00;;;2.90;99.90;;;;;;4961157;28;20021;-87
2023/01/29 07:21:49;;;;;;;16.55;6.70;;;2.90;99.90;;;;;;4991515;28;20528;-87
2023/01/29 07:24:15;;;;;;;14.15;6.65;;;2.90;99.90;;;;;;4975881;28;20409;-87
2023/01/29 07:26:41;;;;;;;15.80;7.13;;;2.90;99.90;;;;;;4989982;28;20030;-87
2023/01/29 07:29:07;;;;;;;19.47;7.30;;;2.90;99.90;;;;;;4999238;28;21373;-87
2023/01/29 07:31:33;;;;;;;16.58;6.97;;;2.90;99.90;;;;;;4976472;28;20640;-87
2023/01/29 07:33:58;;;;;;;17.25;7.57;;;2.90;99.90;;;;;;4968688;28;20662;-87
2023/01/29 07:36:24;;;;;;;19.63;8.47;;;2.90;99.90;;;;;;5007923;28;20112;-87
2023/01/29 07:38:50;;;;;;;18.77;8.07;;;2.90;99.90;;;;;;4993349;28;20061;-87
2023/01/29 07:41:16;;;;;;;16.42;7.40;;;2.90;99.90;;;;;;4977589;28;20561;-87
2023/01/29 07:43:42;;;;;;;18.53;7.17;;;2.90;99.90;;;;;;4981016;28;20228;-87
2023/01/29 07:46:08;;;;;;;19.25;7.90;;;2.90;99.90;;;;;;4989057;28;20159;-87
2023/01/29 07:48:34;;;;;;;17.60;7.60;;;2.90;99.90;;;;;;4975079;28;20030;-87
2023/01/29 07:51:00;;;;;;;18.45;7.80;;;3.00;99.90;;;;;;4970842;28;20010;-87
2023/01/29 07:53:27;;;;;;;19.45;7.93;;;3.00;99.90;;;;;;5003098;28;20025;-87
2023/01/29 07:55:53;;;;;;;13.88;6.35;;;3.00;99.90;;;;;;4989052;28;20017;-87
2023/01/29 07:58:19;;;;;;;21.17;8.13;;;3.00;99.90;;;;;;5010411;28;20106;-87
2023/01/29 08:00:44;;;;;;;17.70;8.07;;;3.10;99.90;;;;;;4997665;28;20033;-87
2023/01/29 08:03:13;;;;;;;20.20;8.17;;;3.10;99.90;;;;;;4997242;28;20302;-87
2023/01/29 08:05:38;;;;;;;19.80;9.25;;;3.10;99.90;;;;;;4983955;28;20302;-87
2023/01/29 08:08:04;;;;;;;26.98;11.35;;;3.10;99.90;;;;;;4996661;28;20022;-87
2023/01/29 08:10:31;;;;;;;21.90;9.03;;;3.10;99.90;;;;;;4987109;28;20389;-87
2023/01/29 08:12:58;;;;;;;16.35;7.25;;;3.10;99.90;;;;;;4987204;28;20029;-87
2023/01/29 08:15:24;;;;;;;21.30;8.40;;;3.20;99.90;;;;;;4978732;28;20396;-87
2023/01/29 08:17:51;;;;;;;20.15;8.18;;;3.20;99.90;;;;;;4993995;28;20044;-87
2023/01/29 08:20:17;;;;;;;21.40;7.93;;;3.20;99.90;;;;;;4975523;28;20116;-87
2023/01/29 08:22:43;;;;;;;18.38;7.88;;;3.30;99.90;;;;;;5021658;28;20022;-87
2023/01/29 08:25:09;;;;;;;19.55;7.70;;;3.30;99.90;;;;;;4998562;28;20030;-87
2023/01/29 08:27:35;;;;;;;17.67;7.40;;;3.30;99.90;;;;;;4997429;28;21870;-87
2023/01/29 08:30:01;;;;;;;18.42;7.88;;;3.40;99.90;;;;;;4993775;28;20033;-87
2023/01/29 08:32:26;;;;;;;17.02;6.78;;;3.30;99.90;;;;;;4959467;28;20103;-87
2023/01/29 08:34:52;;;;;;;17.67;7.13;;;3.40;99.90;;;;;;5010969;28;20032;-87
2023/01/29 08:37:18;;;;;;;20.02;8.52;;;3.40;99.90;;;;;;4969887;28;20037;-87
2023/01/29 08:39:44;;;;;;;20.17;8.80;;;3.40;99.90;;;;;;4993439;28;20029;-87
2023/01/29 08:42:09;;;;;;;22.40;8.57;;;3.40;99.90;;;;;;4982417;28;20033;-87
2023/01/29 08:44:35;;;;;;;22.70;8.80;;;3.40;99.90;;;;;;4973614;28;20275;-87
2023/01/29 08:47:01;;;;;;;22.35;9.05;;;3.50;99.90;;;;;;4974040;28;20058;-87
2023/01/29 08:49:27;;;;;;;17.07;7.00;;;3.50;99.90;;;;;;4979996;28;20021;-87
2023/01/29 08:51:55;;;;;;;23.33;9.60;;;3.50;99.90;;;;;;4976447;28;20032;-88
2023/01/29 08:54:22;;;;;;;23.27;10.07;;;3.50;99.90;;;;;;5001701;28;20153;-88
2023/01/29 08:56:48;;;;;;;24.37;9.07;;;3.60;99.90;;;;;;4977607;28;20036;-88
2023/01/29 08:59:14;;;;;;;24.08;9.85;;;3.60;99.90;;;;;;4968631;28;20043;-88
2023/01/29 09:01:40;;;;;;;22.05;8.90;;;3.60;99.90;;;;;;4985614;28;20739;-88
2023/01/29 09:04:06;;;;;;;24.17;10.27;;;3.70;99.90;;;;;;4995702;28;20108;-88
2023/01/29 09:06:32;;;;;;;18.83;8.60;;;3.70;99.90;;;;;;4974890;28;20049;-88
2023/01/29 09:08:57;;;;;;;20.52;8.52;;;3.70;99.90;;;;;;4970069;28;20378;-88
2023/01/29 09:11:23;;;;;;;22.07;9.23;;;3.70;99.90;;;;;;4984879;28;20030;-88
2023/01/29 09:13:49;;;;;;;20.95;8.68;;;3.80;99.90;;;;;;4981848;28;20124;-88
2023/01/29 09:16:14;;;;;;;18.80;8.00;;;3.80;99.90;;;;;;4975545;28;20112;-88
2023/01/29 09:18:40;;;;;;;17.98;7.93;;;3.80;99.90;;;;;;4996106;28;20387;-88
2023/01/29 09:21:06;;;;;;;21.67;8.70;;;3.90;99.90;;;;;;4989509;28;20715;-88
2023/01/29 09:23:31;;;;;;;18.08;8.23;;;3.90;99.90;;;;;;4965777;28;20021;-89
2023/01/29 09:25:57;;;;;;;18.70;7.78;;;3.90;99.90;;;;;;4987522;28;20533;-88
2023/01/29 09:28:23;;;;;;;19.33;7.73;;;3.90;99.90;;;;;;4998433;28;20028;-88
2023/01/29 09:30:50;;;;;;;20.33;8.43;;;3.90;99.90;;;;;;4980106;28;20114;-88
2023/01/29 09:33:15;;;;;;;19.83;9.07;;;4.00;99.90;;;;;;4999425;28;20502;-88
2023/01/29 09:35:42;;;;;;;22.42;9.30;;;4.00;99.90;;;;;;4993328;28;20069;-88
2023/01/29 09:38:09;;;;;;;21.48;9.05;;;4.00;99.90;;;;;;4989441;28;20579;-88
2023/01/29 09:41:04;;;;;;;19.55;8.38;;;4.00;99.90;;;;;;4983444;28;20156;-88
2023/01/29 09:43:53;;;;;;;21.57;10.10;;;4.00;99.90;;;;;;5000069;28;20042;-88
2023/01/29 09:46:39;;;;;;;23.15;10.75;;;4.00;99.90;;;;;;4982478;28;20819;-88
2023/01/29 09:49:21;;;;;;;20.05;8.73;;;4.00;99.90;;;;;;4991982;28;20323;-88
2023/01/29 09:51:51;;;;;;;18.13;8.23;;;4.10;99.90;;;;;;4986301;28;20091;-88
2023/01/29 09:54:34;;;;;;;19.40;8.70;;;4.10;99.90;;;;;;5020027;28;20580;-88
2023/01/29 09:57:00;;;;;;;20.13;8.93;;;4.10;99.90;;;;;;4980339;28;20041;-88
2023/01/29 09:59:34;;;;;;;18.52;8.27;;;4.10;99.90;;;;;;4989464;28;20389;-85
2023/01/29 10:02:03;;;;;;;20.17;9.40;;;4.20;99.90;;;;;;4990037;28;20038;-88
2023/01/29 10:04:49;;;;;;;25.42;10.13;;;4.20;99.90;;;;;;4974319;28;20482;-88
2023/01/29 10:07:48;;;;;;;17.08;7.80;;;4.20;99.90;;;;;;4990353;28;20064;-87
2023/01/29 10:10:26;;;;;;;17.77;7.63;;;4.30;99.90;;;;;;4991113;28;20215;-88
2023/01/29 10:13:01;;;;;;;17.98;7.57;;;4.30;99.90;;;;;;4964563;28;20478;-88
2023/01/29 10:15:46;;;;;;;20.50;9.02;;;4.30;99.90;;;;;;5016728;28;20025;-87
2023/01/29 10:18:35;;;;;;;19.67;8.77;;;4.40;99.90;;;;;;4973958;28;20126;-87
2023/01/29 10:21:01;;;;;;;19.48;8.25;;;4.40;99.90;;;;;;4973372;28;20033;-88
2023/01/29 10:23:33;;;;;;;18.77;8.37;;;4.40;99.90;;;;;;4990709;28;20390;-88
2023/01/29 10:25:59;;;;;;;15.85;7.30;;;4.50;99.90;;;;;;4999135;28;20596;-88
2023/01/29 10:28:47;;;;;;;19.23;8.30;;;4.50;99.90;;;;;;4981534;28;20050;-88
2023/01/29 10:31:37;;;;;;;15.98;7.22;;;4.50;99.90;;;;;;4981589;28;20662;-88
2023/01/29 10:34:23;;;;;;;18.85;8.90;;;4.50;99.90;;;;;;4989631;28;20033;-88
2023/01/29 10:36:49;;;;;;;17.95;8.20;;;4.60;99.90;;;;;;4989839;28;21032;-87
2023/01/29 10:39:17;;;;;;;21.33;9.73;;;4.60;99.90;;;;;;4991559;28;20029;-87
2023/01/29 10:42:04;;;;;;;19.93;8.93;;;4.60;99.90;;;;;;4999276;28;20032;-87
2023/01/29 10:44:36;;;;;;;20.63;9.32;;;4.70;99.90;;;;;;4967368;28;20057;-87
2023/01/29 10:47:14;;;;;;;16.35;8.00;;;4.70;99.90;;;;;;5006708;28;20076;-88
2023/01/29 10:50:00;;;;;;;17.70;7.95;;;4.70;99.90;;;;;;4992458;28;21719;-88
2023/01/29 10:52:38;;;;;;;13.63;6.95;;;4.80;99.90;;;;;;4999968;28;20045;-89
2023/01/29 10:55:17;;;;;;;16.77;7.77;;;4.80;99.90;;;;;;4989981;28;20029;-89
2023/01/29 10:58:07;;;;;;;17.23;7.85;;;4.80;99.90;;;;;;5003398;28;20285;-89
2023/01/29 11:01:03;;;;;;;16.85;7.55;;;4.90;99.90;;;;;;4949998;28;20037;-89
2023/01/29 11:03:31;;;;;;;18.77;8.80;;;4.90;99.90;;;;;;4994047;28;20049;-89
2023/01/29 11:06:01;;;;;;;20.00;9.15;;;4.90;99.90;;;;;;4992619;28;20087;-89
2023/01/29 11:08:35;;;;;;;18.80;8.40;;;4.90;99.90;;;;;;4983166;28;20018;-89
2023/01/29 11:11:07;;;;;;;16.70;7.70;;;5.00;99.90;;;;;;4977840;28;20239;-89
2023/01/29 11:13:41;;;;;;;15.43;7.75;;;5.00;99.90;;;;;;4988644;28;20384;-89
2023/01/29 11:16:08;;;;;;;18.50;8.48;;;5.00;99.90;;;;;;4970662;28;20617;-89
2023/01/29 11:18:54;;;;;;;19.20;9.25;;;5.10;99.90;;;;;;5003746;28;20135;-89
2023/01/29 11:21:21;;;;;;;18.67;8.47;;;5.10;99.90;;;;;;4984154;28;20040;-89
2023/01/29 11:23:47;;;;;;;20.73;9.32;;;5.10;99.90;;;;;;4978563;28;20371;-89
2023/01/29 11:26:19;;;;;;;19.30;9.60;;;5.20;99.90;;;;;;4991025;28;20032;-89
2023/01/29 11:28:47;;;;;;;20.38;9.38;;;5.20;99.90;;;;;;4993051;28;20053;-89
2023/01/29 11:31:37;;;;;;;19.80;9.20;;;5.20;99.90;;;;;;4987390;28;20025;-88
2023/01/29 11:34:19;;;;;;;21.63;10.70;;;5.20;99.90;;;;;;5002241;28;20037;-88
2023/01/29 11:36:45;;;;;;;20.30;9.32;;;5.30;99.90;;;;;;4994264;28;20025;-88
2023/01/29 11:39:18;;;;;;;18.83;8.98;;;5.30;99.90;;;;;;4981007;28;20405;-89
2023/01/29 11:41:47;;;;;;;19.55;9.90;;;5.30;99.90;;;;;;5011197;28;20257;-89
2023/01/29 11:44:42;;;;;;;18.27;9.03;;;5.40;99.90;;;;;;5010357;28;20029;-88
2023/01/29 11:47:07;;;;;;;25.85;11.80;;;5.40;99.90;;;;;;4984735;28;20132;-89
2023/01/29 11:49:34;;;;;;;22.63;10.70;;;5.50;99.90;;;;;;4969498;28;20236;-88
2023/01/29 11:52:03;;;;;;;20.08;9.90;;;5.50;99.90;;;;;;4992251;28;20087;-88
2023/01/29 11:54:35;;;;;;;23.53;11.03;;;5.60;99.90;;;;;;4973500;28;20135;-89
2023/01/29 11:57:02;;;;;;;22.13;10.13;;;5.60;99.90;;;;;;4988220;28;20029;-89
2023/01/29 11:59:37;;;;;;;19.70;9.98;;;5.70;99.90;;;;;;4991346;28;20029;-87
2023/01/29 12:02:25;;;;;;;20.70;9.90;;;5.80;99.90;;;;;;4968713;28;20246;-88
2023/01/29 12:04:53;;;;;;;20.23;10.50;;;5.80;99.90;;;;;;4973712;28;20112;-89
2023/01/29 12:07:20;;;;;;;20.87;10.40;;;5.90;99.90;;;;;;5012972;28;20064;-89
2023/01/29 12:09:59;;;;;;;20.13;9.95;;;5.90;99.90;;;;;;4997169;28;20030;-88
2023/01/29 12:12:36;;;;;;;21.38;10.13;;;6.00;99.90;;;;;;4992814;28;20030;-89
2023/01/29 12:15:21;;;;;;;20.77;10.05;;;6.00;99.90;;;;;;4993354;28;20207;-87
2023/01/29 12:18:10;;;;;;;18.33;8.93;;;6.10;99.90;;;;;;4965695;28;20070;-88
2023/01/29 12:20:43;;;;;;;16.30;8.27;;;6.00;99.90;;;;;;4973979;28;20024;-88
2023/01/29 12:23:31;;;;;;;18.25;9.63;;;6.10;99.90;;;;;;4995429;28;20322;-88
2023/01/29 12:26:31;;;;;;;15.75;8.48;;;6.10;99.90;;;;;;4977397;28;20028;-89
2023/01/29 12:29:15;;;;;;;18.08;9.15;;;6.20;99.90;;;;;;4988866;28;20625;-89
2023/01/29 12:31:50;;;;;;;16.50;8.80;;;6.20;99.90;;;;;;4991346;28;20060;-88
2023/01/29 12:34:51;;;;;;;17.57;8.60;;;6.30;99.90;;;;;;4996558;28;20526;-89
2023/01/29 12:37:34;;;;;;;17.92;8.43;;;6.30;99.90;;;;;;4979854;28;20029;-89
2023/01/29 12:40:00;;;;;;;17.20;8.48;;;6.40;99.90;;;;;;4976243;28;20057;-87
2023/01/29 12:42:27;;;;;;;19.38;9.85;;;6.30;99.90;;;;;;5011262;28;20365;-87
2023/01/29 12:45:00;;;;;;;14.93;7.80;;;6.40;99.90;;;;;;4988476;28;20462;-89
2023/01/29 12:47:34;;;;;;;15.77;8.40;;;6.40;99.90;;;;;;4998476;28;20524;-88
2023/01/29 12:50:12;;;;;;;17.10;8.60;;;6.40;99.90;;;;;;4964666;28;20045;-88
2023/01/29 12:52:40;;;;;;;16.58;8.30;;;6.40;99.90;;;;;;4975320;28;20033;-87
2023/01/29 12:55:17;;;;;;;14.88;7.40;;;6.40;99.90;;;;;;4971639;28;20319;-88
2023/01/29 12:57:46;;;;;;;14.40;7.60;;;6.50;99.90;;;;;;5011572;28;20030;-88
2023/01/29 13:00:37;;;;;;;16.93;8.47;;;6.50;99.90;;;;;;4979781;28;20025;-89
2023/01/29 13:03:18;;;;;;;17.80;8.38;;;6.50;99.90;;;;;;4987796;28;20029;-89
2023/01/29 13:05:46;;;;;;;15.40;7.55;;;6.50;99.90;;;;;;5004387;28;20034;-88
2023/01/29 13:08:34;;;;;;;13.85;7.30;;;6.50;99.90;;;;;;4970903;28;20092;-89
2023/01/29 13:11:05;;;;;;;15.20;7.80;;;6.50;99.90;;;;;;4968539;28;20091;-87
2023/01/29 13:14:05;;;;;;;15.00;8.00;;;6.60;99.90;;;;;;5004730;28;20025;-87
2023/01/29 13:16:40;;;;;;;13.55;7.28;;;6.60;99.90;;;;;;4984116;28;20037;-88
2023/01/29 13:19:17;;;;;;;14.10;7.03;;;6.60;99.90;;;;;;4980130;28;20029;-89
2023/01/29 13:21:44;;;;;;;13.10;6.80;;;6.60;99.90;;;;;;4999393;28;20049;-89
2023/01/29 13:24:20;;;;;;;12.93;6.75;;;6.60;99.90;;;;;;5005685;28;20030;-88
2023/01/29 13:26:47;;;;;;;15.30;8.07;;;6.70;99.90;;;;;;5010764;28;20584;-89
2023/01/29 13:29:20;;;;;;;13.95;7.53;;;6.60;99.90;;;;;;5010003;28;20079;-88
2023/01/29 13:31:48;;;;;;;13.50;7.03;;;6.70;99.90;;;;;;4995708;28;20037;-88
2023/01/29 13:34:35;;;;;;;16.65;8.20;;;6.70;99.90;;;;;;4986463;28;20041;-88
2023/01/29 13:37:08;;;;;;;14.43;7.28;;;6.70;99.90;;;;;;4991604;28;20035;-88
2023/01/29 13:39:43;;;;;;;11.63;6.03;;;6.60;99.90;;;;;;4998269;28;20048;-89